sensor_id;sensor_type;location;lat;lon;timestamp;temperature;humidity
17284;DHT22;8760;52.248;20.952;2023-02-10T00:01:39;0.00;1.00
17284;DHT22;8760;52.248;20.952;2023-02-10T00:04:09;0.00;1.00
17284;DHT22;8760;52.248;20.952;2023-02-10T00:06:37;0.00;1.00
17284;DHT22;8760;52.248;20.952;2023-02-10T00:09:04;0.00;1.00
17284;DHT22;8760;52.248;20.952;2023-02-10T00:11:31;0.00;1.00
17284;DHT22;8760;52.248;20.952;2023-02-10T00:14:17;-0.10;1.00
17284;DHT22;8760;52.248;20.952;2023-02-10T00:16:45;0.00;1.00
17284;DHT22;8760;52.248;20.952;2023-02-10T00:19:14;0.00;1.00
17284;DHT22;8760;52.248;20.952;2023-02-10T00:21:41;0.00;1.00
17284;DHT22;8760;52.248;20.952;2023-02-10T00:24:08;-0.10;1.00
17284;DHT22;8760;52.248;20.952;2023-02-10T00:26:35;-0.10;1.00
17284;DHT22;8760;52.248;20.952;2023-02-10T00:29:02;0.00;1.00
17284;DHT22;8760;52.248;20.952;2023-02-10T00:31:29;-0.10;1.00
17284;DHT22;8760;52.248;20.952;2023-02-10T00:33:56;-0.10;1.00
17284;DHT22;8760;52.248;20.952;2023-02-10T00:36:25;0.00;1.00
17284;DHT22;8760;52.248;20.952;2023-02-10T00:38:52;0.00;1.00
17284;DHT22;8760;52.248;20.952;2023-02-10T00:41:20;-0.10;1.00
17284;DHT22;8760;52.248;20.952;2023-02-10T00:43:47;-0.10;1.00
17284;DHT22;8760;52.248;20.952;2023-02-10T00:46:16;-0.10;1.00
17284;DHT22;8760;52.248;20.952;2023-02-10T00:48:44;-0.10;1.00
17284;DHT22;8760;52.248;20.952;2023-02-10T00:51:12;0.00;1.00
17284;DHT22;8760;52.248;20.952;2023-02-10T00:53:40;-0.10;1.00
17284;DHT22;8760;52.248;20.952;2023-02-10T00:56:08;-0.20;1.00
17284;DHT22;8760;52.248;20.952;2023-02-10T00:58:35;-0.20;1.00
17284;DHT22;8760;52.248;20.952;2023-02-10T01:01:03;-0.10;1.00
17284;DHT22;8760;52.248;20.952;2023-02-10T01:03:30;-0.20;1.00
17284;DHT22;8760;52.248;20.952;2023-02-10T01:05:57;-0.20;1.00
17284;DHT22;8760;52.248;20.952;2023-02-10T01:08:24;-0.20;1.00
17284;DHT22;8760;52.248;20.952;2023-02-10T01:10:59;-0.20;1.00
17284;DHT22;8760;52.248;20.952;2023-02-10T01:13:26;-0.20;1.00
17284;DHT22;8760;52.248;20.952;2023-02-10T01:15:53;-0.20;1.00
17284;DHT22;8760;52.248;20.952;2023-02-10T01:18:20;-0.30;1.00
17284;DHT22;8760;52.248;20.952;2023-02-10T01:20:47;-0.30;1.00
17284;DHT22;8760;52.248;20.952;2023-02-10T01:23:14;-0.30;1.00
17284;DHT22;8760;52.248;20.952;2023-02-10T01:25:41;-0.30;1.00
17284;DHT22;8760;52.248;20.952;2023-02-10T01:28:10;-0.30;1.00
17284;DHT22;8760;52.248;20.952;2023-02-10T01:30:37;-0.30;1.00
17284;DHT22;8760;52.248;20.952;2023-02-10T01:33:04;-0.30;1.00
17284;DHT22;8760;52.248;20.952;2023-02-10T01:35:31;-0.30;1.00
17284;DHT22;8760;52.248;20.952;2023-02-10T01:37:58;-0.30;1.00
17284;DHT22;8760;52.248;20.952;2023-02-10T01:40:26;-0.40;1.00
17284;DHT22;8760;52.248;20.952;2023-02-10T01:42:53;-0.30;1.00
17284;DHT22;8760;52.248;20.952;2023-02-10T01:45:25;-0.40;1.00
17284;DHT22;8760;52.248;20.952;2023-02-10T01:47:54;-0.40;1.00
17284;DHT22;8760;52.248;20.952;2023-02-10T01:50:24;-0.50;1.00
17284;DHT22;8760;52.248;20.952;2023-02-10T01:52:51;-0.50;1.00
17284;DHT22;8760;52.248;20.952;2023-02-10T01:55:21;-0.60;1.00
17284;DHT22;8760;52.248;20.952;2023-02-10T01:57:50;-0.60;33.60
17284;DHT22;8760;52.248;20.952;2023-02-10T02:00:22;-0.60;28.60
17284;DHT22;8760;52.248;20.952;2023-02-10T02:02:50;-0.60;53.90
17284;DHT22;8760;52.248;20.952;2023-02-10T02:05:28;-0.70;65.20
17284;DHT22;8760;52.248;20.952;2023-02-10T02:07:57;-0.60;68.20
17284;DHT22;8760;52.248;20.952;2023-02-10T02:10:31;-0.60;99.90
17284;DHT22;8760;52.248;20.952;2023-02-10T02:13:05;-0.70;99.90
17284;DHT22;8760;52.248;20.952;2023-02-10T02:15:42;-0.70;99.90
17284;DHT22;8760;52.248;20.952;2023-02-10T02:18:15;-0.70;99.90
17284;DHT22;8760;52.248;20.952;2023-02-10T02:24:07;-0.70;99.90
17284;DHT22;8760;52.248;20.952;2023-02-10T02:32:48;-0.80;99.90
17284;DHT22;8760;52.248;20.952;2023-02-10T02:35:19;-0.80;99.90
17284;DHT22;8760;52.248;20.952;2023-02-10T02:37:48;-0.80;99.90
17284;DHT22;8760;52.248;20.952;2023-02-10T02:40:16;-0.80;99.90
17284;DHT22;8760;52.248;20.952;2023-02-10T02:42:43;-0.80;99.90
17284;DHT22;8760;52.248;20.952;2023-02-10T02:45:12;-0.90;99.90
17284;DHT22;8760;52.248;20.952;2023-02-10T02:47:52;-0.80;99.90
17284;DHT22;8760;52.248;20.952;2023-02-10T02:50:24;-0.90;99.90
17284;DHT22;8760;52.248;20.952;2023-02-10T02:53:17;-0.90;99.90
17284;DHT22;8760;52.248;20.952;2023-02-10T02:55:53;-0.90;99.90
17284;DHT22;8760;52.248;20.952;2023-02-10T02:58:32;-0.90;99.90
17284;DHT22;8760;52.248;20.952;2023-02-10T03:01:02;-0.80;99.90
17284;DHT22;8760;52.248;20.952;2023-02-10T03:03:34;-0.80;99.90
17284;DHT22;8760;52.248;20.952;2023-02-10T03:06:01;-0.80;99.90
17284;DHT22;8760;52.248;20.952;2023-02-10T03:08:30;-0.70;99.90
17284;DHT22;8760;52.248;20.952;2023-02-10T03:10:57;-0.70;99.90
17284;DHT22;8760;52.248;20.952;2023-02-10T03:13:24;-0.70;99.90
17284;DHT22;8760;52.248;20.952;2023-02-10T03:15:51;-0.70;99.90
17284;DHT22;8760;52.248;20.952;2023-02-10T03:18:18;-0.70;99.90
17284;DHT22;8760;52.248;20.952;2023-02-10T03:20:47;-0.70;99.90
17284;DHT22;8760;52.248;20.952;2023-02-10T03:23:14;-0.70;99.90
17284;DHT22;8760;52.248;20.952;2023-02-10T03:25:43;-0.60;99.90
17284;DHT22;8760;52.248;20.952;2023-02-10T03:28:10;-0.70;99.90
17284;DHT22;8760;52.248;20.952;2023-02-10T03:30:37;-0.70;99.90
17284;DHT22;8760;52.248;20.952;2023-02-10T03:33:04;-0.70;99.90
17284;DHT22;8760;52.248;20.952;2023-02-10T03:35:35;-0.80;99.90
17284;DHT22;8760;52.248;20.952;2023-02-10T03:38:05;-0.80;99.90
17284;DHT22;8760;52.248;20.952;2023-02-10T03:40:33;-0.80;99.90
17284;DHT22;8760;52.248;20.952;2023-02-10T03:43:01;-0.80;99.90
17284;DHT22;8760;52.248;20.952;2023-02-10T03:45:28;-0.90;99.90
17284;DHT22;8760;52.248;20.952;2023-02-10T03:47:55;-0.90;99.90
17284;DHT22;8760;52.248;20.952;2023-02-10T03:50:24;-0.90;99.90
17284;DHT22;8760;52.248;20.952;2023-02-10T03:52:51;-0.90;99.90
17284;DHT22;8760;52.248;20.952;2023-02-10T03:55:20;-1.00;99.90
17284;DHT22;8760;52.248;20.952;2023-02-10T03:57:47;-1.00;99.90
17284;DHT22;8760;52.248;20.952;2023-02-10T04:00:14;-1.00;1.00
17284;DHT22;8760;52.248;20.952;2023-02-10T04:02:42;-1.00;1.00
17284;DHT22;8760;52.248;20.952;2023-02-10T04:05:09;-1.00;99.90
17284;DHT22;8760;52.248;20.952;2023-02-10T04:07:36;-1.00;1.00
17284;DHT22;8760;52.248;20.952;2023-02-10T04:10:04;-1.00;1.00
17284;DHT22;8760;52.248;20.952;2023-02-10T04:12:32;-1.10;1.00
17284;DHT22;8760;52.248;20.952;2023-02-10T04:14:59;-1.10;1.00
17284;DHT22;8760;52.248;20.952;2023-02-10T04:17:26;-1.10;1.00
17284;DHT22;8760;52.248;20.952;2023-02-10T04:19:53;-1.10;1.00
17284;DHT22;8760;52.248;20.952;2023-02-10T04:22:20;-1.20;1.00
17284;DHT22;8760;52.248;20.952;2023-02-10T04:24:47;-1.20;1.00
17284;DHT22;8760;52.248;20.952;2023-02-10T04:27:14;-1.20;1.00
17284;DHT22;8760;52.248;20.952;2023-02-10T04:29:42;-1.10;1.00
17284;DHT22;8760;52.248;20.952;2023-02-10T04:32:09;-1.10;1.00
17284;DHT22;8760;52.248;20.952;2023-02-10T04:34:36;-1.20;1.00
17284;DHT22;8760;52.248;20.952;2023-02-10T04:37:02;-1.20;1.00
17284;DHT22;8760;52.248;20.952;2023-02-10T04:39:29;-1.20;1.00
17284;DHT22;8760;52.248;20.952;2023-02-10T04:41:56;-1.10;1.00
17284;DHT22;8760;52.248;20.952;2023-02-10T04:44:23;-1.30;1.00
17284;DHT22;8760;52.248;20.952;2023-02-10T04:46:51;-1.20;1.00
17284;DHT22;8760;52.248;20.952;2023-02-10T04:49:18;-1.20;1.00
17284;DHT22;8760;52.248;20.952;2023-02-10T04:51:45;-1.20;1.00
17284;DHT22;8760;52.248;20.952;2023-02-10T04:54:13;-1.10;1.00
17284;DHT22;8760;52.248;20.952;2023-02-10T04:56:40;-1.10;1.00
17284;DHT22;8760;52.248;20.952;2023-02-10T04:59:07;-1.00;1.00
17284;DHT22;8760;52.248;20.952;2023-02-10T05:01:34;-1.00;1.00
17284;DHT22;8760;52.248;20.952;2023-02-10T05:04:03;-0.90;1.00
17284;DHT22;8760;52.248;20.952;2023-02-10T05:06:30;-0.90;1.00
17284;DHT22;8760;52.248;20.952;2023-02-10T05:08:57;-0.90;1.00
17284;DHT22;8760;52.248;20.952;2023-02-10T05:11:24;-0.80;1.00
17284;DHT22;8760;52.248;20.952;2023-02-10T05:13:51;-0.80;1.00
17284;DHT22;8760;52.248;20.952;2023-02-10T05:16:18;-0.80;1.00
17284;DHT22;8760;52.248;20.952;2023-02-10T05:18:45;-0.80;1.00
17284;DHT22;8760;52.248;20.952;2023-02-10T05:21:13;-0.80;1.00
17284;DHT22;8760;52.248;20.952;2023-02-10T05:23:40;-0.80;1.00
17284;DHT22;8760;52.248;20.952;2023-02-10T05:26:08;-0.70;1.00
17284;DHT22;8760;52.248;20.952;2023-02-10T05:28:34;-0.80;1.00
17284;DHT22;8760;52.248;20.952;2023-02-10T05:31:02;-0.80;1.00
17284;DHT22;8760;52.248;20.952;2023-02-10T05:33:32;-0.80;1.00
17284;DHT22;8760;52.248;20.952;2023-02-10T05:36:00;-0.70;1.00
17284;DHT22;8760;52.248;20.952;2023-02-10T05:38:28;-0.80;1.00
17284;DHT22;8760;52.248;20.952;2023-02-10T05:40:56;-0.70;1.00
17284;DHT22;8760;52.248;20.952;2023-02-10T05:43:23;-0.70;1.00
17284;DHT22;8760;52.248;20.952;2023-02-10T05:45:50;-0.70;1.00
17284;DHT22;8760;52.248;20.952;2023-02-10T05:48:17;-0.60;1.00
17284;DHT22;8760;52.248;20.952;2023-02-10T05:50:44;-0.60;1.00
17284;DHT22;8760;52.248;20.952;2023-02-10T05:53:10;-0.60;1.00
17284;DHT22;8760;52.248;20.952;2023-02-10T05:55:40;-0.60;1.00
17284;DHT22;8760;52.248;20.952;2023-02-10T05:58:07;-0.60;1.00
17284;DHT22;8760;52.248;20.952;2023-02-10T06:00:33;-0.60;1.00
17284;DHT22;8760;52.248;20.952;2023-02-10T06:03:00;-0.50;1.00
17284;DHT22;8760;52.248;20.952;2023-02-10T06:05:27;-0.50;1.00
17284;DHT22;8760;52.248;20.952;2023-02-10T06:07:54;-0.60;1.00
17284;DHT22;8760;52.248;20.952;2023-02-10T06:10:21;-0.60;1.00
17284;DHT22;8760;52.248;20.952;2023-02-10T06:12:50;-0.50;1.00
17284;DHT22;8760;52.248;20.952;2023-02-10T06:15:17;-0.60;71.90
17284;DHT22;8760;52.248;20.952;2023-02-10T06:17:44;-0.60;99.90
17284;DHT22;8760;52.248;20.952;2023-02-10T06:20:11;-0.60;99.90
17284;DHT22;8760;52.248;20.952;2023-02-10T06:22:38;-0.60;99.90
17284;DHT22;8760;52.248;20.952;2023-02-10T06:25:05;-0.50;99.90
17284;DHT22;8760;52.248;20.952;2023-02-10T06:27:32;-0.50;99.90
17284;DHT22;8760;52.248;20.952;2023-02-10T06:30:01;-0.50;99.90
17284;DHT22;8760;52.248;20.952;2023-02-10T06:32:28;-0.40;99.90
17284;DHT22;8760;52.248;20.952;2023-02-10T06:34:55;-0.40;99.90
17284;DHT22;8760;52.248;20.952;2023-02-10T06:37:22;-0.30;99.90
17284;DHT22;8760;52.248;20.952;2023-02-10T06:39:49;-0.30;99.90
17284;DHT22;8760;52.248;20.952;2023-02-10T06:42:16;-0.30;99.90
17284;DHT22;8760;52.248;20.952;2023-02-10T06:44:43;-0.20;99.90
17284;DHT22;8760;52.248;20.952;2023-02-10T06:47:11;-0.20;99.90
17284;DHT22;8760;52.248;20.952;2023-02-10T06:49:38;-0.20;99.90
17284;DHT22;8760;52.248;20.952;2023-02-10T06:52:05;-0.20;99.90
17284;DHT22;8760;52.248;20.952;2023-02-10T06:54:32;-0.10;99.90
17284;DHT22;8760;52.248;20.952;2023-02-10T06:56:59;-0.10;99.90
17284;DHT22;8760;52.248;20.952;2023-02-10T06:59:26;-0.10;99.90
17284;DHT22;8760;52.248;20.952;2023-02-10T07:01:53;-0.10;99.90
17284;DHT22;8760;52.248;20.952;2023-02-10T07:04:27;0.00;99.90
17284;DHT22;8760;52.248;20.952;2023-02-10T07:06:54;0.00;99.90
17284;DHT22;8760;52.248;20.952;2023-02-10T07:09:21;0.00;99.90
17284;DHT22;8760;52.248;20.952;2023-02-10T07:11:48;0.00;99.90
17284;DHT22;8760;52.248;20.952;2023-02-10T07:14:15;0.00;99.90
17284;DHT22;8760;52.248;20.952;2023-02-10T07:16:42;0.00;99.90
17284;DHT22;8760;52.248;20.952;2023-02-10T07:19:09;0.00;99.90
17284;DHT22;8760;52.248;20.952;2023-02-10T07:21:38;0.00;99.90
17284;DHT22;8760;52.248;20.952;2023-02-10T07:24:06;0.00;99.90
17284;DHT22;8760;52.248;20.952;2023-02-10T07:26:33;0.00;99.90
17284;DHT22;8760;52.248;20.952;2023-02-10T07:29:00;0.10;99.90
17284;DHT22;8760;52.248;20.952;2023-02-10T07:31:27;0.10;99.90
17284;DHT22;8760;52.248;20.952;2023-02-10T07:33:54;0.10;1.00
17284;DHT22;8760;52.248;20.952;2023-02-10T07:36:21;0.20;1.00
17284;DHT22;8760;52.248;20.952;2023-02-10T07:38:50;0.20;1.00
17284;DHT22;8760;52.248;20.952;2023-02-10T07:41:17;0.30;1.00
17284;DHT22;8760;52.248;20.952;2023-02-10T07:43:43;0.40;1.00
17284;DHT22;8760;52.248;20.952;2023-02-10T07:46:10;0.40;1.00
17284;DHT22;8760;52.248;20.952;2023-02-10T07:48:38;0.50;1.00
17284;DHT22;8760;52.248;20.952;2023-02-10T07:51:05;0.50;99.90
17284;DHT22;8760;52.248;20.952;2023-02-10T07:53:31;0.60;99.90
17284;DHT22;8760;52.248;20.952;2023-02-10T07:56:00;0.60;1.00
17284;DHT22;8760;52.248;20.952;2023-02-10T07:58:27;0.60;1.00
17284;DHT22;8760;52.248;20.952;2023-02-10T08:00:55;0.70;1.00
17284;DHT22;8760;52.248;20.952;2023-02-10T08:03:22;0.80;1.00
17284;DHT22;8760;52.248;20.952;2023-02-10T08:05:49;1.00;1.00
17284;DHT22;8760;52.248;20.952;2023-02-10T08:08:17;0.90;99.90
17284;DHT22;8760;52.248;20.952;2023-02-10T08:10:45;0.90;99.90
17284;DHT22;8760;52.248;20.952;2023-02-10T08:13:13;0.90;1.00
17284;DHT22;8760;52.248;20.952;2023-02-10T08:15:40;0.80;1.00
17284;DHT22;8760;52.248;20.952;2023-02-10T08:18:07;0.70;99.90
17284;DHT22;8760;52.248;20.952;2023-02-10T08:20:34;0.80;99.90
17284;DHT22;8760;52.248;20.952;2023-02-10T08:23:01;0.90;99.90
17284;DHT22;8760;52.248;20.952;2023-02-10T08:25:28;0.80;99.90
17284;DHT22;8760;52.248;20.952;2023-02-10T08:27:55;0.90;99.90
17284;DHT22;8760;52.248;20.952;2023-02-10T08:30:24;0.80;1.00
17284;DHT22;8760;52.248;20.952;2023-02-10T08:32:51;0.90;1.00
17284;DHT22;8760;52.248;20.952;2023-02-10T08:35:18;0.80;1.00
17284;DHT22;8760;52.248;20.952;2023-02-10T08:37:45;0.70;1.00
17284;DHT22;8760;52.248;20.952;2023-02-10T08:40:12;0.70;1.00
17284;DHT22;8760;52.248;20.952;2023-02-10T08:42:40;0.70;99.90
17284;DHT22;8760;52.248;20.952;2023-02-10T08:45:08;0.70;99.90
17284;DHT22;8760;52.248;20.952;2023-02-10T08:47:37;0.70;1.00
17284;DHT22;8760;52.248;20.952;2023-02-10T08:50:04;0.70;1.00
17284;DHT22;8760;52.248;20.952;2023-02-10T08:52:32;0.60;43.10
17284;DHT22;8760;52.248;20.952;2023-02-10T08:54:59;0.60;1.00
17284;DHT22;8760;52.248;20.952;2023-02-10T08:57:27;0.60;99.90
17284;DHT22;8760;52.248;20.952;2023-02-10T08:59:54;0.70;99.90
17284;DHT22;8760;52.248;20.952;2023-02-10T09:02:21;0.70;1.00
17284;DHT22;8760;52.248;20.952;2023-02-10T09:04:49;0.70;99.90
17284;DHT22;8760;52.248;20.952;2023-02-10T09:07:16;0.80;52.80
17284;DHT22;8760;52.248;20.952;2023-02-10T09:09:45;0.80;1.00
17284;DHT22;8760;52.248;20.952;2023-02-10T09:12:12;0.80;1.00
17284;DHT22;8760;52.248;20.952;2023-02-10T09:14:40;0.80;1.00
17284;DHT22;8760;52.248;20.952;2023-02-10T09:17:07;0.80;1.00
17284;DHT22;8760;52.248;20.952;2023-02-10T09:19:35;0.70;1.00
17284;DHT22;8760;52.248;20.952;2023-02-10T09:22:04;0.80;99.90
17284;DHT22;8760;52.248;20.952;2023-02-10T09:24:31;0.80;1.00
17284;DHT22;8760;52.248;20.952;2023-02-10T09:26:59;1.00;1.00
17284;DHT22;8760;52.248;20.952;2023-02-10T09:29:26;1.10;1.00
17284;DHT22;8760;52.248;20.952;2023-02-10T09:31:53;1.10;99.90
17284;DHT22;8760;52.248;20.952;2023-02-10T09:34:22;1.10;99.90
17284;DHT22;8760;52.248;20.952;2023-02-10T09:36:49;1.10;1.00
17284;DHT22;8760;52.248;20.952;2023-02-10T09:39:18;1.10;99.00
17284;DHT22;8760;52.248;20.952;2023-02-10T09:41:51;1.20;99.90
17284;DHT22;8760;52.248;20.952;2023-02-10T09:44:23;1.10;99.90
17284;DHT22;8760;52.248;20.952;2023-02-10T09:47:12;1.10;99.90
17284;DHT22;8760;52.248;20.952;2023-02-10T09:50:14;1.10;1.00
17284;DHT22;8760;52.248;20.952;2023-02-10T09:52:57;1.20;99.90
17284;DHT22;8760;52.248;20.952;2023-02-10T09:55:31;1.20;1.00
17284;DHT22;8760;52.248;20.952;2023-02-10T09:58:03;1.20;99.90
17284;DHT22;8760;52.248;20.952;2023-02-10T10:00:35;1.30;1.00
17284;DHT22;8760;52.248;20.952;2023-02-10T10:03:05;1.30;40.50
17284;DHT22;8760;52.248;20.952;2023-02-10T10:05:40;1.30;99.90
17284;DHT22;8760;52.248;20.952;2023-02-10T10:08:17;1.30;99.90
17284;DHT22;8760;52.248;20.952;2023-02-10T10:10:47;1.30;99.90
17284;DHT22;8760;52.248;20.952;2023-02-10T10:13:20;1.50;64.60
17284;DHT22;8760;52.248;20.952;2023-02-10T10:15:58;1.50;1.00
17284;DHT22;8760;52.248;20.952;2023-02-10T10:18:33;1.50;1.00
17284;DHT22;8760;52.248;20.952;2023-02-10T10:21:09;1.50;1.00
17284;DHT22;8760;52.248;20.952;2023-02-10T10:23:49;1.60;1.00
17284;DHT22;8760;52.248;20.952;2023-02-10T10:26:44;1.60;1.00
17284;DHT22;8760;52.248;20.952;2023-02-10T10:29:20;1.60;1.00
17284;DHT22;8760;52.248;20.952;2023-02-10T10:31:54;1.60;99.90
17284;DHT22;8760;52.248;20.952;2023-02-10T10:34:29;1.70;1.00
17284;DHT22;8760;52.248;20.952;2023-02-10T10:36:58;1.50;99.90
17284;DHT22;8760;52.248;20.952;2023-02-10T10:39:30;1.50;1.00
17284;DHT22;8760;52.248;20.952;2023-02-10T10:42:03;1.50;1.00
17284;DHT22;8760;52.248;20.952;2023-02-10T10:44:36;1.50;1.00
17284;DHT22;8760;52.248;20.952;2023-02-10T10:47:11;1.60;99.90
17284;DHT22;8760;52.248;20.952;2023-02-10T10:49:40;1.60;1.00
17284;DHT22;8760;52.248;20.952;2023-02-10T10:52:23;1.50;99.90
17284;DHT22;8760;52.248;20.952;2023-02-10T10:54:52;1.50;99.90
17284;DHT22;8760;52.248;20.952;2023-02-10T10:57:21;1.60;1.00
17284;DHT22;8760;52.248;20.952;2023-02-10T10:59:52;1.60;1.00
17284;DHT22;8760;52.248;20.952;2023-02-10T11:02:22;1.60;1.00
17284;DHT22;8760;52.248;20.952;2023-02-10T11:05:00;1.60;99.90
17284;DHT22;8760;52.248;20.952;2023-02-10T11:07:31;1.50;1.00
17284;DHT22;8760;52.248;20.952;2023-02-10T11:09:59;1.50;99.90
17284;DHT22;8760;52.248;20.952;2023-02-10T11:12:32;1.60;99.90
17284;DHT22;8760;52.248;20.952;2023-02-10T11:15:00;1.60;1.00
17284;DHT22;8760;52.248;20.952;2023-02-10T11:17:32;1.60;98.80
17284;DHT22;8760;52.248;20.952;2023-02-10T11:20:03;1.60;1.00
17284;DHT22;8760;52.248;20.952;2023-02-10T11:22:30;1.70;1.00
17284;DHT22;8760;52.248;20.952;2023-02-10T11:24:59;1.70;1.00
17284;DHT22;8760;52.248;20.952;2023-02-10T11:27:28;1.70;1.00
17284;DHT22;8760;52.248;20.952;2023-02-10T11:29:58;1.70;1.00
17284;DHT22;8760;52.248;20.952;2023-02-10T11:32:29;1.70;99.90
17284;DHT22;8760;52.248;20.952;2023-02-10T11:34:59;1.70;1.00
17284;DHT22;8760;52.248;20.952;2023-02-10T11:37:30;1.70;1.00
17284;DHT22;8760;52.248;20.952;2023-02-10T11:39:59;1.60;1.00
17284;DHT22;8760;52.248;20.952;2023-02-10T11:42:29;1.70;99.90
17284;DHT22;8760;52.248;20.952;2023-02-10T11:45:00;1.80;1.00
17284;DHT22;8760;52.248;20.952;2023-02-10T11:47:30;2.00;99.90
17284;DHT22;8760;52.248;20.952;2023-02-10T11:49:58;2.20;1.00
17284;DHT22;8760;52.248;20.952;2023-02-10T11:52:27;2.30;99.90
17284;DHT22;8760;52.248;20.952;2023-02-10T11:54:56;2.40;1.00
17284;DHT22;8760;52.248;20.952;2023-02-10T11:57:44;2.40;99.90
17284;DHT22;8760;52.248;20.952;2023-02-10T12:00:38;2.50;1.00
17284;DHT22;8760;52.248;20.952;2023-02-10T12:03:28;2.30;1.00
17284;DHT22;8760;52.248;20.952;2023-02-10T12:06:05;2.20;99.90
17284;DHT22;8760;52.248;20.952;2023-02-10T12:08:41;2.20;66.90
17284;DHT22;8760;52.248;20.952;2023-02-10T12:11:17;2.10;99.90
17284;DHT22;8760;52.248;20.952;2023-02-10T12:13:58;2.10;1.00
17284;DHT22;8760;52.248;20.952;2023-02-10T12:16:35;2.10;99.90
17284;DHT22;8760;52.248;20.952;2023-02-10T12:19:15;2.20;1.00
17284;DHT22;8760;52.248;20.952;2023-02-10T12:21:55;2.10;1.00
17284;DHT22;8760;52.248;20.952;2023-02-10T12:24:54;2.20;1.00
17284;DHT22;8760;52.248;20.952;2023-02-10T12:27:27;2.10;99.90
17284;DHT22;8760;52.248;20.952;2023-02-10T12:30:04;2.20;1.00
17284;DHT22;8760;52.248;20.952;2023-02-10T12:32:41;2.20;69.60
17284;DHT22;8760;52.248;20.952;2023-02-10T12:35:22;2.20;1.00
17284;DHT22;8760;52.248;20.952;2023-02-10T12:38:01;2.30;99.90
17284;DHT22;8760;52.248;20.952;2023-02-10T12:40:52;2.20;99.90
17284;DHT22;8760;52.248;20.952;2023-02-10T12:43:33;2.20;99.90
17284;DHT22;8760;52.248;20.952;2023-02-10T12:46:12;2.20;1.00
17284;DHT22;8760;52.248;20.952;2023-02-10T12:48:46;2.30;1.00
17284;DHT22;8760;52.248;20.952;2023-02-10T12:51:26;2.20;99.90
17284;DHT22;8760;52.248;20.952;2023-02-10T12:53:59;2.20;1.00
17284;DHT22;8760;52.248;20.952;2023-02-10T12:56:32;2.20;1.00
17284;DHT22;8760;52.248;20.952;2023-02-10T12:59:08;2.30;99.90
17284;DHT22;8760;52.248;20.952;2023-02-10T13:01:42;2.40;1.00
17284;DHT22;8760;52.248;20.952;2023-02-10T13:04:16;2.40;1.00
17284;DHT22;8760;52.248;20.952;2023-02-10T13:06:47;2.50;1.00
17284;DHT22;8760;52.248;20.952;2023-02-10T13:09:21;2.40;99.90
17284;DHT22;8760;52.248;20.952;2023-02-10T13:12:03;2.40;1.00
17284;DHT22;8760;52.248;20.952;2023-02-10T13:14:31;2.40;1.00
17284;DHT22;8760;52.248;20.952;2023-02-10T13:17:00;2.40;1.00
17284;DHT22;8760;52.248;20.952;2023-02-10T13:19:36;2.40;1.00
17284;DHT22;8760;52.248;20.952;2023-02-10T13:22:09;2.40;99.90
17284;DHT22;8760;52.248;20.952;2023-02-10T13:24:42;2.40;99.90
17284;DHT22;8760;52.248;20.952;2023-02-10T13:27:23;2.30;99.90
17284;DHT22;8760;52.248;20.952;2023-02-10T13:30:01;2.30;1.00
17284;DHT22;8760;52.248;20.952;2023-02-10T13:32:45;2.30;1.00
17284;DHT22;8760;52.248;20.952;2023-02-10T13:35:21;2.30;1.00
17284;DHT22;8760;52.248;20.952;2023-02-10T13:37:51;2.20;1.00
17284;DHT22;8760;52.248;20.952;2023-02-10T13:40:22;2.10;99.90
17284;DHT22;8760;52.248;20.952;2023-02-10T13:42:51;2.10;1.00
17284;DHT22;8760;52.248;20.952;2023-02-10T13:45:21;2.10;1.00
17284;DHT22;8760;52.248;20.952;2023-02-10T13:47:53;2.10;1.00
17284;DHT22;8760;52.248;20.952;2023-02-10T13:50:30;2.10;1.00
17284;DHT22;8760;52.248;20.952;2023-02-10T13:53:00;2.10;1.00
17284;DHT22;8760;52.248;20.952;2023-02-10T13:55:43;2.10;1.00
17284;DHT22;8760;52.248;20.952;2023-02-10T13:58:32;2.00;1.00
17284;DHT22;8760;52.248;20.952;2023-02-10T14:00:59;2.10;1.00
17284;DHT22;8760;52.248;20.952;2023-02-10T14:03:29;2.10;1.00
17284;DHT22;8760;52.248;20.952;2023-02-10T14:05:59;2.20;1.00
17284;DHT22;8760;52.248;20.952;2023-02-10T14:08:29;2.10;1.00
17284;DHT22;8760;52.248;20.952;2023-02-10T14:10:59;2.10;1.00
17284;DHT22;8760;52.248;20.952;2023-02-10T14:13:29;2.10;1.00
17284;DHT22;8760;52.248;20.952;2023-02-10T14:16:04;2.00;63.60
17284;DHT22;8760;52.248;20.952;2023-02-10T14:18:35;2.10;99.90
17284;DHT22;8760;52.248;20.952;2023-02-10T14:21:07;2.10;64.70
17284;DHT22;8760;52.248;20.952;2023-02-10T14:23:37;2.10;99.90
17284;DHT22;8760;52.248;20.952;2023-02-10T14:26:08;2.10;62.20
17284;DHT22;8760;52.248;20.952;2023-02-10T14:28:42;2.10;99.90
17284;DHT22;8760;52.248;20.952;2023-02-10T14:31:16;2.10;99.90
17284;DHT22;8760;52.248;20.952;2023-02-10T14:33:54;2.10;99.90
17284;DHT22;8760;52.248;20.952;2023-02-10T14:36:21;2.10;99.90
17284;DHT22;8760;52.248;20.952;2023-02-10T14:38:50;2.00;99.90
17284;DHT22;8760;52.248;20.952;2023-02-10T14:41:19;2.00;99.90
17284;DHT22;8760;52.248;20.952;2023-02-10T14:43:46;1.90;99.90
17284;DHT22;8760;52.248;20.952;2023-02-10T14:46:19;2.00;1.00
17284;DHT22;8760;52.248;20.952;2023-02-10T14:48:47;2.00;1.00
17284;DHT22;8760;52.248;20.952;2023-02-10T14:51:21;2.00;1.00
17284;DHT22;8760;52.248;20.952;2023-02-10T14:53:49;1.90;1.00
17284;DHT22;8760;52.248;20.952;2023-02-10T14:56:18;1.90;1.00
17284;DHT22;8760;52.248;20.952;2023-02-10T14:58:46;1.90;1.00
17284;DHT22;8760;52.248;20.952;2023-02-10T15:01:16;1.90;1.00
17284;DHT22;8760;52.248;20.952;2023-02-10T15:03:46;1.90;1.00
17284;DHT22;8760;52.248;20.952;2023-02-10T15:06:15;1.80;1.00
17284;DHT22;8760;52.248;20.952;2023-02-10T15:08:45;1.80;1.00
17284;DHT22;8760;52.248;20.952;2023-02-10T15:11:15;1.80;1.00
17284;DHT22;8760;52.248;20.952;2023-02-10T15:14:03;1.80;1.00
17284;DHT22;8760;52.248;20.952;2023-02-10T15:16:31;1.80;1.00
17284;DHT22;8760;52.248;20.952;2023-02-10T15:18:58;1.80;1.00
17284;DHT22;8760;52.248;20.952;2023-02-10T15:21:33;1.80;1.00
17284;DHT22;8760;52.248;20.952;2023-02-10T15:24:02;1.80;1.00
17284;DHT22;8760;52.248;20.952;2023-02-10T15:26:31;1.80;1.00
17284;DHT22;8760;52.248;20.952;2023-02-10T15:29:03;1.90;1.00
17284;DHT22;8760;52.248;20.952;2023-02-10T15:31:31;1.80;1.00
17284;DHT22;8760;52.248;20.952;2023-02-10T15:34:00;1.80;1.00
17284;DHT22;8760;52.248;20.952;2023-02-10T15:36:29;1.80;1.00
17284;DHT22;8760;52.248;20.952;2023-02-10T15:39:02;1.80;1.00
17284;DHT22;8760;52.248;20.952;2023-02-10T15:41:34;1.70;1.00
17284;DHT22;8760;52.248;20.952;2023-02-10T15:44:04;1.70;1.00
17284;DHT22;8760;52.248;20.952;2023-02-10T15:46:34;1.70;1.00
17284;DHT22;8760;52.248;20.952;2023-02-10T15:49:12;1.70;1.00
17284;DHT22;8760;52.248;20.952;2023-02-10T15:51:42;1.70;1.00
17284;DHT22;8760;52.248;20.952;2023-02-10T15:54:14;1.70;1.00
17284;DHT22;8760;52.248;20.952;2023-02-10T15:56:41;1.70;1.00
17284;DHT22;8760;52.248;20.952;2023-02-10T15:59:15;1.70;1.00
17284;DHT22;8760;52.248;20.952;2023-02-10T16:01:42;1.80;1.00
17284;DHT22;8760;52.248;20.952;2023-02-10T16:04:09;1.70;1.00
17284;DHT22;8760;52.248;20.952;2023-02-10T16:06:37;1.70;1.00
17284;DHT22;8760;52.248;20.952;2023-02-10T16:09:04;1.70;1.00
17284;DHT22;8760;52.248;20.952;2023-02-10T16:11:33;1.70;1.00
17284;DHT22;8760;52.248;20.952;2023-02-10T16:14:00;1.60;1.00
17284;DHT22;8760;52.248;20.952;2023-02-10T16:16:27;1.70;1.00
17284;DHT22;8760;52.248;20.952;2023-02-10T16:18:54;1.70;1.00